Time;durP1;ratioP1;P1;durP2;ratioP2;P2;SDS_P1;SDS_P2;PMS_P1;PMS_P2;Temp;Humidity;BMP_temperature;BMP_pressure;BME280_temperature;BME280_humidity;BME280_pressure;Samples;Min_cycle;Max_cycle;Signal;HPM_P1;HPM_P2
2022/08/24 00:00:33;;;;;;;9.98;5.65;;;20.60;99.90;;;;;;5075322;28;20494;-68
2022/08/24 00:03:00;;;;;;;13.77;5.75;;;20.60;99.90;;;;;;5075400;28;20043;-69
2022/08/24 00:05:25;;;;;;;12.48;6.07;;;20.60;99.90;;;;;;5074868;28;20021;-70
2022/08/24 00:07:51;;;;;;;12.43;5.68;;;20.50;99.90;;;;;;5074772;28;20024;-66
2022/08/24 00:10:19;;;;;;;11.68;6.53;;;20.50;99.90;;;;;;5075390;28;20096;-68
2022/08/24 00:12:44;;;;;;;12.70;6.07;;;20.50;99.90;;;;;;5074967;28;20024;-67
2022/08/24 00:15:12;;;;;;;13.00;5.50;;;20.50;99.90;;;;;;5074893;28;20017;-68
2022/08/24 00:17:38;;;;;;;12.52;6.05;;;20.50;99.90;;;;;;5074865;28;20035;-68
2022/08/24 00:20:05;;;;;;;11.52;5.70;;;20.50;99.90;;;;;;5074688;28;20021;-69
2022/08/24 00:22:30;;;;;;;11.77;5.88;;;20.40;99.90;;;;;;5074438;28;20028;-68
2022/08/24 00:24:56;;;;;;;12.10;5.70;;;20.40;99.90;;;;;;5074612;28;20074;-67
2022/08/24 00:27:21;;;;;;;11.43;5.75;;;20.40;99.90;;;;;;5075037;28;20097;-69
2022/08/24 00:29:48;;;;;;;9.85;5.00;;;20.30;99.90;;;;;;5074341;28;20028;-68
2022/08/24 00:32:13;;;;;;;12.18;6.10;;;20.30;99.90;;;;;;5074903;28;20017;-68
2022/08/24 00:34:39;;;;;;;10.07;6.00;;;20.20;99.90;;;;;;5074525;28;20044;-67
2022/08/24 00:37:04;;;;;;;13.60;6.53;;;20.20;99.90;;;;;;5074620;28;20040;-67
2022/08/24 00:39:30;;;;;;;10.93;6.22;;;20.20;99.90;;;;;;5074774;28;20202;-67
2022/08/24 00:41:56;;;;;;;10.98;6.07;;;20.20;99.90;;;;;;5074043;28;20024;-68
2022/08/24 00:44:22;;;;;;;10.13;6.03;;;20.20;99.90;;;;;;5072241;28;20445;-68
2022/08/24 00:46:58;;;;;;;15.15;7.10;;;20.20;99.90;;;;;;5074518;28;20056;-69
2022/08/24 00:49:38;;;;;;;11.07;5.97;;;20.20;99.90;;;;;;5074206;28;20056;-68
2022/08/24 00:52:15;;;;;;;15.52;6.65;;;20.20;99.90;;;;;;5074559;28;20024;-71
2022/08/24 00:54:45;;;;;;;13.30;6.38;;;20.20;99.90;;;;;;5074518;28;20107;-68
2022/08/24 00:57:13;;;;;;;11.95;6.13;;;20.20;99.90;;;;;;5074136;28;20036;-71
2022/08/24 00:59:43;;;;;;;12.05;5.50;;;20.20;99.90;;;;;;5073321;28;20048;-67
2022/08/24 01:02:15;;;;;;;9.25;5.45;;;20.20;99.90;;;;;;5074287;28;20060;-68
2022/08/24 01:04:52;;;;;;;11.75;5.38;;;20.20;99.90;;;;;;5073809;28;20020;-68
2022/08/24 01:07:19;;;;;;;9.75;5.15;;;20.20;99.90;;;;;;5074043;28;20024;-70
2022/08/24 01:09:45;;;;;;;8.75;5.45;;;20.20;99.90;;;;;;5073740;28;20507;-68
2022/08/24 01:12:11;;;;;;;11.90;5.50;;;20.20;99.90;;;;;;5073706;28;20021;-67
2022/08/24 01:14:37;;;;;;;8.80;5.45;;;20.20;99.90;;;;;;5073831;28;20024;-68
2022/08/24 01:19:53;;;;;;;11.48;5.60;;;20.20;99.90;;;;;;5073948;28;20063;-68
2022/08/24 01:22:42;;;;;;;10.07;5.60;;;20.10;99.90;;;;;;5073614;28;20016;-67
2022/08/24 01:25:08;;;;;;;11.65;6.20;;;20.10;99.90;;;;;;5073316;28;20078;-71
2022/08/24 01:27:36;;;;;;;12.73;6.40;;;20.20;99.90;;;;;;5073041;28;20486;-68
2022/08/24 01:30:05;;;;;;;12.77;7.10;;;20.10;99.90;;;;;;5073767;28;20065;-67
2022/08/24 01:32:31;;;;;;;10.60;5.88;;;20.10;99.90;;;;;;5073646;28;20020;-67
2022/08/24 01:34:57;;;;;;;12.40;6.20;;;20.10;99.90;;;;;;5073311;28;20408;-70
2022/08/24 01:37:23;;;;;;;9.43;5.88;;;20.10;99.90;;;;;;5073089;28;20040;-68
2022/08/24 01:39:53;;;;;;;9.30;5.60;;;20.10;99.90;;;;;;5073629;28;20110;-67
2022/08/24 01:42:18;;;;;;;10.95;5.97;;;20.10;99.90;;;;;;5073216;28;20051;-67
2022/08/24 01:44:44;;;;;;;13.35;6.78;;;20.00;99.90;;;;;;5073334;28;20428;-67
2022/08/24 01:47:12;;;;;;;14.27;6.97;;;20.00;99.90;;;;;;5072281;28;20024;-68
2022/08/24 01:49:43;;;;;;;11.77;6.72;;;20.00;99.90;;;;;;5072833;28;20103;-68
2022/08/24 01:52:13;;;;;;;11.75;6.65;;;20.00;99.90;;;;;;5072829;28;20052;-68
2022/08/24 01:54:39;;;;;;;12.38;6.72;;;20.00;99.90;;;;;;5072123;28;20159;-67
2022/08/24 01:57:05;;;;;;;12.88;6.93;;;19.90;99.90;;;;;;5073208;28;20115;-68
2022/08/24 01:59:31;;;;;;;15.20;7.47;;;20.00;99.90;;;;;;5073052;28;20116;-68
2022/08/24 02:02:28;;;;;;;13.10;7.78;;;20.00;99.90;;;;;;5072589;28;20151;-68
2022/08/24 02:04:54;;;;;;;14.30;8.05;;;19.90;99.90;;;;;;5068383;28;20043;-67
2022/08/24 02:07:19;;;;;;;12.02;6.75;;;19.90;99.90;;;;;;5073009;28;20370;-71
2022/08/24 02:09:45;;;;;;;14.93;7.75;;;20.00;99.90;;;;;;5072957;28;20024;-67
2022/08/24 02:12:12;;;;;;;14.80;7.68;;;20.00;99.90;;;;;;5073069;28;20024;-66
2022/08/24 02:14:41;;;;;;;16.83;8.65;;;20.00;99.90;;;;;;5072702;28;20099;-70
2022/08/24 02:17:08;;;;;;;18.25;8.07;;;19.90;99.90;;;;;;5072724;28;20516;-72
2022/08/24 02:19:34;;;;;;;17.17;9.15;;;19.90;99.90;;;;;;5073071;28;20021;-67
2022/08/24 02:22:00;;;;;;;16.60;9.15;;;19.90;99.90;;;;;;5071473;28;20036;-71
2022/08/24 02:24:27;;;;;;;22.00;10.65;;;19.80;99.90;;;;;;5072896;28;20021;-68
2022/08/24 02:26:52;;;;;;;21.65;11.10;;;19.80;99.90;;;;;;5071394;28;20024;-68
2022/08/24 02:29:18;;;;;;;21.48;11.45;;;19.80;99.90;;;;;;5072219;28;20414;-67
2022/08/24 02:31:43;;;;;;;21.30;11.82;;;19.80;99.90;;;;;;5072517;28;20027;-69
2022/08/24 02:34:09;;;;;;;19.75;10.93;;;19.80;99.90;;;;;;5072703;28;20012;-68
2022/08/24 02:36:35;;;;;;;19.63;10.85;;;19.80;99.90;;;;;;5072842;28;20343;-68
2022/08/24 02:39:00;;;;;;;20.73;10.60;;;19.80;99.90;;;;;;5071302;28;20036;-67
2022/08/24 02:41:27;;;;;;;20.00;11.10;;;19.90;99.90;;;;;;5071333;28;20021;-68
2022/08/24 02:43:53;;;;;;;21.52;11.00;;;19.80;99.90;;;;;;5072142;28;20500;-67
2022/08/24 02:46:25;;;;;;;20.38;11.02;;;19.80;99.90;;;;;;5072264;28;20025;-73
2022/08/24 02:48:51;;;;;;;;;;;19.90;99.90;;;;;;5073124;28;20020;-68
2022/08/24 02:51:22;;;;;;;20.40;10.80;;;19.90;99.90;;;;;;5072993;28;19990;-69
2022/08/24 02:53:48;;;;;;;22.35;11.13;;;19.80;99.90;;;;;;5072558;28;20036;-70
2022/08/24 02:56:16;;;;;;;20.83;10.93;;;19.80;99.90;;;;;;5071547;28;20446;-66
2022/08/24 02:58:42;;;;;;;20.20;10.80;;;19.90;99.90;;;;;;5070723;28;20074;-66
2022/08/24 03:01:09;;;;;;;19.45;9.70;;;19.90;99.90;;;;;;5071178;28;20009;-68
2022/08/24 03:03:34;;;;;;;21.27;11.50;;;19.80;99.90;;;;;;5071182;28;20028;-66
2022/08/24 03:06:00;;;;;;;19.08;10.25;;;19.80;99.90;;;;;;5071860;28;20095;-67
2022/08/24 03:08:26;;;;;;;20.60;10.88;;;19.80;99.90;;;;;;5074547;28;20392;-69
2022/08/24 03:10:52;;;;;;;22.15;11.15;;;19.80;99.90;;;;;;5074622;28;20021;-67
2022/08/24 03:13:18;;;;;;;23.60;12.02;;;19.80;99.90;;;;;;5074914;28;20132;-68
2022/08/24 03:15:45;;;;;;;20.55;10.90;;;19.80;99.90;;;;;;5074343;28;20103;-71
2022/08/24 03:18:11;;;;;;;20.27;11.38;;;19.80;99.90;;;;;;5074813;28;20024;-67
2022/08/24 03:20:37;;;;;;;25.05;13.50;;;19.80;99.90;;;;;;5074783;28;20028;-70
2022/08/24 03:23:04;;;;;;;25.90;14.55;;;19.80;99.90;;;;;;5074442;28;20036;-69
2022/08/24 03:25:30;;;;;;;23.67;13.25;;;19.80;99.90;;;;;;5074388;28;20013;-66
2022/08/24 03:27:55;;;;;;;24.70;14.38;;;19.80;99.90;;;;;;5074320;28;20036;-71
2022/08/24 03:30:23;;;;;;;23.80;13.18;;;19.80;99.90;;;;;;5073282;28;20094;-67
2022/08/24 03:32:49;;;;;;;22.23;12.63;;;19.80;99.90;;;;;;5074676;28;20020;-72
2022/08/24 03:35:15;;;;;;;23.45;12.65;;;19.80;99.90;;;;;;5074631;28;20134;-69
2022/08/24 03:37:41;;;;;;;24.25;12.25;;;19.80;99.90;;;;;;5074130;28;20038;-70
2022/08/24 03:40:08;;;;;;;20.60;11.48;;;19.70;99.90;;;;;;5073773;28;20099;-69
2022/08/24 03:42:34;;;;;;;22.52;11.65;;;19.70;99.90;;;;;;5074095;28;20017;-67
2022/08/24 03:45:00;;;;;;;22.58;11.25;;;19.70;99.90;;;;;;5074082;28;20043;-67
2022/08/24 03:47:25;;;;;;;21.25;10.88;;;19.60;99.90;;;;;;5071539;28;20033;-68
2022/08/24 03:49:52;;;;;;;18.63;10.68;;;19.60;99.90;;;;;;5074784;28;20111;-66
2022/08/24 03:52:17;;;;;;;20.85;11.45;;;19.60;99.90;;;;;;5075147;28;20042;-67
2022/08/24 03:54:43;;;;;;;19.88;10.68;;;19.60;99.90;;;;;;5075519;28;20424;-70
2022/08/24 03:57:09;;;;;;;21.42;11.05;;;19.60;99.90;;;;;;5075445;28;20041;-68
2022/08/24 03:59:34;;;;;;;20.65;10.77;;;19.60;99.90;;;;;;5073324;28;20045;-69
2022/08/24 04:02:00;;;;;;;22.25;11.68;;;19.60;99.90;;;;;;5074256;28;20036;-70
2022/08/24 04:04:25;;;;;;;23.75;12.02;;;19.60;99.90;;;;;;5073698;28;20127;-68
2022/08/24 04:06:51;;;;;;;24.05;12.20;;;19.60;99.90;;;;;;5073947;28;20049;-67
2022/08/24 04:09:17;;;;;;;26.88;13.00;;;19.60;99.90;;;;;;5073123;28;20078;-67
2022/08/24 04:11:44;;;;;;;24.98;13.05;;;19.60;99.90;;;;;;5073826;28;20020;-69
2022/08/24 04:14:10;;;;;;;23.90;13.52;;;19.70;99.90;;;;;;5074118;28;20043;-70
2022/08/24 04:16:37;;;;;;;26.95;15.52;;;19.70;99.90;;;;;;5073553;28;20055;-69
2022/08/24 04:19:02;;;;;;;28.17;15.98;;;19.80;99.90;;;;;;5072324;28;20020;-66
2022/08/24 04:21:31;;;;;;;30.25;16.42;;;19.80;99.90;;;;;;5073708;28;20027;-69
2022/08/24 04:23:58;;;;;;;27.77;16.17;;;19.90;99.90;;;;;;5073766;28;20031;-67
2022/08/24 04:26:25;;;;;;;26.35;15.50;;;19.90;99.90;;;;;;5073737;28;20029;-67
2022/08/24 04:28:51;;;;;;;27.65;17.15;;;20.00;99.90;;;;;;5073362;28;20052;-67
2022/08/24 04:31:17;;;;;;;26.95;16.00;;;20.10;99.90;;;;;;5073566;28;20501;-71
2022/08/24 04:33:46;;;;;;;28.83;16.35;;;20.10;99.90;;;;;;5072886;28;20044;-69
2022/08/24 04:36:12;;;;;;;26.17;15.15;;;20.10;99.90;;;;;;5072725;28;20016;-67
2022/08/24 04:38:38;;;;;;;27.25;15.80;;;20.10;99.90;;;;;;5072758;28;20385;-67
2022/08/24 04:41:06;;;;;;;26.42;15.68;;;20.20;99.90;;;;;;5072674;28;20020;-70
2022/08/24 04:43:33;;;;;;;28.23;15.85;;;20.20;99.90;;;;;;5073462;28;20496;-68
2022/08/24 04:46:03;;;;;;;25.33;15.07;;;20.30;99.90;;;;;;5072836;28;20519;-69
2022/08/24 04:48:29;;;;;;;24.73;14.55;;;20.30;99.90;;;;;;5070829;28;20446;-67
2022/08/24 04:50:59;;;;;;;22.30;12.77;;;20.30;99.90;;;;;;5072925;28;20073;-69
2022/08/24 04:53:25;;;;;;;22.83;13.32;;;20.40;99.90;;;;;;5072544;28;20374;-69
2022/08/24 04:55:51;;;;;;;27.17;14.38;;;20.40;99.90;;;;;;5073111;28;20028;-67
2022/08/24 04:58:17;;;;;;;22.30;13.93;;;20.40;99.90;;;;;;5072675;28;20028;-68
2022/08/24 05:00:43;;;;;;;23.83;12.60;;;20.40;99.90;;;;;;5072297;28;20127;-67
2022/08/24 05:03:10;;;;;;;21.10;12.02;;;20.50;99.90;;;;;;5073356;28;20035;-69
2022/08/24 05:05:43;;;;;;;25.85;13.68;;;20.50;99.90;;;;;;5072871;28;20025;-65
2022/08/24 05:08:09;;;;;;;23.50;13.48;;;20.60;99.90;;;;;;5070306;28;20024;-70
2022/08/24 05:10:38;;;;;;;24.27;13.70;;;20.70;99.90;;;;;;5072874;28;20020;-67
2022/08/24 05:13:03;;;;;;;22.85;12.85;;;20.70;99.90;;;;;;5072880;28;20473;-68
2022/08/24 05:15:30;;;;;;;23.50;12.82;;;20.80;99.90;;;;;;5072754;28;20016;-68
2022/08/24 05:17:55;;;;;;;20.40;11.50;;;20.80;99.90;;;;;;5072103;28;20028;-71
2022/08/24 05:20:21;;;;;;;21.27;11.77;;;20.80;99.90;;;;;;5072745;28;20386;-68
2022/08/24 05:22:46;;;;;;;22.02;11.55;;;20.80;99.90;;;;;;5070262;28;20012;-70
2022/08/24 05:25:12;;;;;;;21.83;12.55;;;20.90;99.90;;;;;;5072419;28;20104;-68
2022/08/24 05:27:38;;;;;;;23.55;12.45;;;20.90;99.90;;;;;;5072605;28;20020;-68
2022/08/24 05:30:04;;;;;;;19.90;11.10;;;21.00;99.90;;;;;;5071769;28;20455;-68
2022/08/24 05:32:30;;;;;;;19.98;11.32;;;21.00;99.90;;;;;;5072396;28;20024;-68
2022/08/24 05:34:59;;;;;;;19.70;9.95;;;21.10;99.90;;;;;;5072379;28;20137;-72
2022/08/24 05:37:25;;;;;;;21.15;10.70;;;21.10;99.90;;;;;;5073129;28;20066;-71
2022/08/24 05:39:51;;;;;;;20.52;10.60;;;21.20;99.90;;;;;;5073918;28;20021;-68
2022/08/24 05:42:16;;;;;;;19.02;10.88;;;21.30;99.90;;;;;;5073715;28;20023;-70
2022/08/24 05:44:42;;;;;;;19.50;10.68;;;21.40;99.90;;;;;;5073301;28;20020;-68
2022/08/24 05:47:09;;;;;;;20.40;10.43;;;21.40;99.90;;;;;;5073528;28;20056;-71
2022/08/24 05:49:34;;;;;;;20.63;10.30;;;21.40;99.90;;;;;;5073504;28;20459;-71
2022/08/24 05:52:01;;;;;;;17.08;9.60;;;21.50;99.90;;;;;;5073283;28;20031;-69
2022/08/24 05:54:26;;;;;;;14.93;8.88;;;21.50;99.90;;;;;;5073554;28;20059;-70
2022/08/24 05:56:53;;;;;;;16.67;8.30;;;21.50;99.90;;;;;;5072829;28;20080;-68
2022/08/24 05:59:21;;;;;;;16.05;8.85;;;21.50;99.90;;;;;;5073252;28;20466;-66
2022/08/24 06:01:47;;;;;;;16.98;9.23;;;21.50;99.90;;;;;;5073290;28;20016;-69
2022/08/24 06:04:13;;;;;;;18.52;8.23;;;21.50;99.90;;;;;;5071974;28;20024;-68
2022/08/24 06:06:38;;;;;;;17.67;8.13;;;21.50;99.90;;;;;;5073371;28;20028;-68
2022/08/24 06:09:04;;;;;;;16.52;8.43;;;21.50;99.90;;;;;;5073635;28;20028;-69
2022/08/24 06:11:33;;;;;;;14.35;7.72;;;21.50;99.90;;;;;;5073227;28;20070;-69
2022/08/24 06:14:02;;;;;;;14.32;7.78;;;21.50;99.90;;;;;;5072900;28;20458;-67
2022/08/24 06:16:28;;;;;;;12.65;7.22;;;21.50;99.90;;;;;;5072519;28;20450;-69
2022/08/24 06:18:54;;;;;;;16.88;7.80;;;21.60;99.90;;;;;;5073002;28;20370;-66
2022/08/24 06:21:24;;;;;;;16.02;6.47;;;21.90;99.90;;;;;;5072836;28;20028;-68
2022/08/24 06:23:50;;;;;;;11.45;6.22;;;22.20;99.90;;;;;;5073224;28;20450;-68
2022/08/24 06:29:01;;;;;;;8.55;4.95;;;22.80;99.90;;;;;;5072782;28;20139;-68
2022/08/24 06:31:27;;;;;;;10.63;5.15;;;23.10;99.90;;;;;;5072782;28;20047;-68
2022/08/24 06:33:53;;;;;;;10.05;4.50;;;23.30;99.90;;;;;;5073161;28;20103;-72
2022/08/24 06:36:20;;;;;;;11.52;5.00;;;23.40;99.90;;;;;;5073224;28;20467;-67
2022/08/24 06:38:45;;;;;;;10.40;4.93;;;23.50;99.90;;;;;;5073077;28;20050;-67
2022/08/24 06:41:11;;;;;;;9.95;4.10;;;23.70;99.90;;;;;;5074522;28;20017;-67
2022/08/24 06:43:37;;;;;;;8.57;4.50;;;24.00;99.90;;;;;;5077400;28;20051;-67
2022/08/24 06:46:03;;;;;;;8.68;3.88;;;24.20;99.90;;;;;;5077138;28;20016;-68
2022/08/24 06:48:30;;;;;;;6.80;3.67;;;24.30;99.90;;;;;;5076892;28;20024;-68
2022/08/24 06:50:57;;;;;;;8.40;4.05;;;24.50;99.90;;;;;;5076619;28;20047;-71
2022/08/24 06:53:23;;;;;;;9.82;3.88;;;24.70;99.90;;;;;;5077013;28;20484;-71
2022/08/24 06:55:50;;;;;;;9.75;3.70;;;24.90;99.90;;;;;;5076807;28;20032;-67
2022/08/24 06:58:17;;;;;;;9.15;4.28;;;25.10;99.90;;;;;;5076780;28;20108;-68
2022/08/24 07:00:43;;;;;;;7.90;3.72;;;25.40;99.90;;;;;;5075828;28;20040;-69
2022/08/24 07:03:08;;;;;;;9.80;3.30;;;25.70;99.90;;;;;;5075350;28;20111;-69
2022/08/24 07:05:34;;;;;;;4.97;3.40;;;25.80;99.90;;;;;;5075500;28;20104;-67
2022/08/24 07:08:00;;;;;;;6.55;3.65;;;25.90;99.90;;;;;;5076356;28;20032;-67
2022/08/24 07:10:27;;;;;;;7.07;3.58;;;26.00;99.90;;;;;;5076460;28;20063;-68
2022/08/24 07:12:52;;;;;;;6.70;3.20;;;26.20;99.90;;;;;;5076565;28;20032;-69
2022/08/24 07:15:18;;;;;;;4.95;3.15;;;26.30;99.90;;;;;;5076174;28;20366;-67
2022/08/24 07:17:44;;;;;;;8.65;3.72;;;26.30;99.90;;;;;;5076685;28;20166;-68
2022/08/24 07:20:11;;;;;;;6.18;3.47;;;26.40;99.90;;;;;;5076323;28;20095;-67
2022/08/24 07:22:37;;;;;;;4.53;3.00;;;26.30;99.90;;;;;;5076132;28;20050;-67
2022/08/24 07:25:04;;;;;;;6.05;3.30;;;26.50;99.90;;;;;;5070855;28;20017;-69
2022/08/24 07:27:29;;;;;;;4.93;2.83;;;26.80;99.90;;;;;;5062048;28;20335;-67
2022/08/24 07:29:56;;;;;;;6.80;3.10;;;27.00;99.90;;;;;;5076232;28;20031;-71
2022/08/24 07:32:22;;;;;;;4.78;2.88;;;27.00;99.90;;;;;;5075752;28;20027;-67
2022/08/24 07:34:48;;;;;;;5.53;3.13;;;27.00;99.90;;;;;;5075859;28;20052;-67
2022/08/24 07:37:14;;;;;;;3.80;2.75;;;27.20;99.90;;;;;;5075999;28;20085;-68
2022/08/24 07:39:39;;;;;;;5.72;2.50;;;27.40;99.90;;;;;;5075636;28;20024;-69
2022/08/24 07:42:05;;;;;;;4.88;2.72;;;27.60;99.90;;;;;;5075722;28;20016;-69
2022/08/24 07:44:31;;;;;;;5.07;2.83;;;27.90;99.90;;;;;;5075815;28;20024;-68
2022/08/24 07:46:57;;;;;;;5.40;2.65;;;28.10;99.90;;;;;;5074493;28;20021;-66
2022/08/24 07:49:23;;;;;;;6.18;2.60;;;28.40;99.90;;;;;;5075214;28;20024;-68
2022/08/24 07:51:52;;;;;;;7.03;3.05;;;28.70;99.90;;;;;;5075198;28;20027;-66
2022/08/24 07:54:18;;;;;;;6.90;3.03;;;29.10;99.90;;;;;;5075801;28;20052;-67
2022/08/24 07:56:44;;;;;;;5.22;2.47;;;29.50;99.90;;;;;;5075855;28;20013;-68
2022/08/24 07:59:10;;;;;;;4.07;2.03;;;30.30;99.90;;;;;;5073975;28;20036;-71
2022/08/24 08:01:36;;;;;;;5.95;2.72;;;31.10;98.50;;;;;;5076039;28;20458;-69
2022/08/24 08:04:02;;;;;;;5.50;3.15;;;31.60;97.50;;;;;;5075503;28;20048;-66
2022/08/24 08:06:27;;;;;;;12.15;4.40;;;32.40;96.60;;;;;;5075242;28;20527;-67
2022/08/24 08:08:53;;;;;;;9.23;3.55;;;33.40;95.40;;;;;;5074108;28;20032;-67
2022/08/24 08:11:19;;;;;;;5.10;2.35;;;34.50;93.90;;;;;;5075490;28;20450;-67
2022/08/24 08:13:44;;;;;;;6.72;2.42;;;35.30;91.90;;;;;;5075503;28;20442;-67
2022/08/24 08:16:10;;;;;;;4.50;1.73;;;35.80;90.60;;;;;;5075375;28;20017;-67
2022/08/24 08:18:35;;;;;;;4.75;1.77;;;36.00;90.30;;;;;;5075222;28;20040;-67
2022/08/24 08:21:03;;;;;;;2.40;1.10;;;36.40;89.50;;;;;;5075398;28;20024;-67
2022/08/24 08:26:16;;;;;;;2.00;1.17;;;36.90;85.10;;;;;;5075476;28;20511;-69
2022/08/24 08:28:42;;;;;;;3.33;1.27;;;36.40;86.00;;;;;;5075149;28;20437;-70
2022/08/24 08:31:08;;;;;;;1.65;1.10;;;35.80;86.80;;;;;;5073978;28;20021;-67
2022/08/24 08:33:34;;;;;;;1.73;1.20;;;35.30;87.00;;;;;;5074550;28;20025;-67
2022/08/24 08:36:06;;;;;;;1.58;1.10;;;34.80;88.60;;;;;;5073594;28;20027;-67
2022/08/24 08:38:32;;;;;;;4.13;1.60;;;34.70;88.40;;;;;;5074805;28;20063;-67
2022/08/24 08:41:18;;;;;;;3.63;1.45;;;34.70;89.10;;;;;;5074916;28;20071;-68
2022/08/24 08:43:51;;;;;;;2.15;1.40;;;34.90;89.10;;;;;;5074944;28;20422;-67
2022/08/24 08:46:38;;;;;;;1.90;1.38;;;35.20;87.80;;;;;;5074707;28;20485;-70
2022/08/24 08:49:22;;;;;;;4.72;1.90;;;35.70;86.70;;;;;;5074917;28;20036;-68
2022/08/24 08:52:32;;;;;;;2.72;1.58;;;36.40;85.40;;;;;;5075163;28;20027;-67
2022/08/24 08:55:03;;;;;;;3.95;1.70;;;36.60;84.10;;;;;;5058560;28;20044;-67
2022/08/24 08:57:39;;;;;;;;;;;36.50;84.50;;;;;;5075028;28;20033;-67
2022/08/24 09:00:23;;;;;;;2.42;1.90;;;36.80;83.40;;;;;;5074641;28;19912;-67
2022/08/24 09:03:05;;;;;;;4.55;2.28;;;37.10;83.00;;;;;;5074535;28;20446;-69
2022/08/24 09:05:57;;;;;;;4.95;2.15;;;37.40;82.60;;;;;;5074061;28;20085;-68
2022/08/24 09:08:46;;;;;;;4.05;1.75;;;37.70;81.60;;;;;;5074408;28;20023;-68
2022/08/24 09:11:47;;;;;;;9.43;3.45;;;38.20;80.50;;;;;;5074303;28;20444;-69
2022/08/24 09:14:30;;;;;;;7.40;3.20;;;38.70;79.30;;;;;;5074392;28;20028;-67
2022/08/24 09:17:20;;;;;;;4.25;1.95;;;38.80;79.00;;;;;;5074085;28;20089;-68
2022/08/24 09:20:09;;;;;;;4.85;2.10;;;39.10;77.90;;;;;;5073517;28;20082;-67
2022/08/24 09:22:42;;;;;;;2.65;1.58;;;39.60;77.00;;;;;;5074128;28;20051;-67
2022/08/24 09:25:30;;;;;;;5.53;2.13;;;40.00;75.50;;;;;;5074006;28;20024;-71
2022/08/24 09:27:56;;;;;;;5.18;2.03;;;40.30;75.30;;;;;;5074007;28;20028;-68
2022/08/24 09:30:31;;;;;;;4.57;2.05;;;40.70;74.40;;;;;;5073968;28;20472;-69
2022/08/24 09:33:08;;;;;;;5.63;1.70;;;41.20;72.70;;;;;;5053913;28;20482;-71
2022/08/24 09:36:02;;;;;;;6.60;1.60;;;41.30;72.50;;;;;;5073804;28;20070;-68
2022/08/24 09:38:28;;;;;;;2.38;1.50;;;40.90;72.00;;;;;;5057333;28;20502;-69
2022/08/24 09:41:18;;;;;;;3.42;1.50;;;40.50;72.00;;;;;;5067007;28;20016;-70
2022/08/24 09:44:08;;;;;;;4.85;1.90;;;40.40;72.10;;;;;;5073773;28;20031;-68
2022/08/24 09:46:52;;;;;;;3.67;1.52;;;40.70;72.40;;;;;;5073476;28;20070;-69
2022/08/24 09:49:49;;;;;;;2.83;1.45;;;40.70;72.00;;;;;;5073739;28;20070;-67
2022/08/24 09:52:34;;;;;;;2.35;1.10;;;40.90;71.30;;;;;;5073668;28;20026;-69
2022/08/24 09:55:25;;;;;;;2.10;1.00;;;41.50;70.50;;;;;;5073232;28;20027;-66
2022/08/24 09:58:19;;;;;;;4.13;0.80;;;42.10;68.50;;;;;;5072420;28;20051;-67
2022/08/24 10:00:57;;;;;;;1.33;1.10;;;42.60;67.80;;;;;;5073293;28;20064;-67
2022/08/24 10:03:26;;;;;;;2.03;0.93;;;42.80;67.40;;;;;;5073055;28;20032;-70
2022/08/24 10:05:58;;;;;;;3.20;1.25;;;42.80;67.30;;;;;;5073124;28;20024;-69
2022/08/24 10:08:38;;;;;;;1.20;1.00;;;42.90;67.20;;;;;;5073510;28;20025;-67
2022/08/24 10:11:09;;;;;;;1.10;1.00;;;43.20;65.10;;;;;;5073307;28;20074;-71
2022/08/24 10:13:46;;;;;;;6.10;2.25;;;43.50;65.50;;;;;;5073537;28;20452;-68
2022/08/24 10:16:16;;;;;;;5.80;1.70;;;44.00;65.20;;;;;;5072378;28;20024;-68
2022/08/24 10:19:14;;;;;;;7.17;2.83;;;44.50;64.30;;;;;;5072784;28;20033;-69
2022/08/24 10:21:48;;;;;;;6.22;2.10;;;44.00;63.90;;;;;;5067380;28;20519;-68
2022/08/24 10:24:25;;;;;;;5.47;1.70;;;43.00;65.90;;;;;;5055856;28;20029;-68
2022/08/24 10:26:57;;;;;;;3.40;2.30;;;42.50;66.50;;;;;;5071940;28;20059;-67
2022/08/24 10:29:28;;;;;;;4.60;2.20;;;41.40;67.50;;;;;;5073117;28;20105;-66
2022/08/24 10:31:59;;;;;;;5.43;2.33;;;40.30;69.20;;;;;;5073219;28;20351;-69
2022/08/24 10:34:56;;;;;;;5.13;1.95;;;39.10;71.00;;;;;;5073034;28;20095;-67
2022/08/24 10:37:46;;;;;;;6.63;1.63;;;38.10;72.90;;;;;;5068150;28;20323;-67
2022/08/24 10:40:38;;;;;;;6.80;2.10;;;37.30;74.90;;;;;;5053148;28;20078;-67
2022/08/24 10:43:33;;;;;;;3.47;1.58;;;37.80;74.70;;;;;;5051254;28;20025;-70
2022/08/24 10:46:17;;;;;;;2.03;1.77;;;38.70;73.40;;;;;;5072543;28;20028;-66
2022/08/24 10:49:01;;;;;;;5.97;2.00;;;39.70;71.80;;;;;;5071713;28;20497;-68
2022/08/24 10:51:44;;;;;;;4.65;2.10;;;40.50;70.30;;;;;;5072555;28;20040;-67
2022/08/24 10:54:11;;;;;;;4.05;1.90;;;41.00;69.50;;;;;;5072688;28;20016;-68
2022/08/24 10:56:51;;;;;;;4.57;1.70;;;41.50;68.70;;;;;;5072337;28;20025;-68
2022/08/24 10:59:19;;;;;;;5.60;1.60;;;41.80;68.10;;;;;;5072635;28;20070;-69
2022/08/24 11:02:05;;;;;;;3.03;1.80;;;42.10;67.60;;;;;;5072651;28;20500;-67
2022/08/24 11:04:34;;;;;;;4.55;1.95;;;42.50;66.90;;;;;;5072685;28;20027;-70
2022/08/24 11:07:05;;;;;;;6.03;2.15;;;42.90;66.30;;;;;;5072608;28;20025;-67
2022/08/24 11:09:52;;;;;;;4.22;2.28;;;43.20;65.60;;;;;;5072302;28;20442;-70
2022/08/24 11:12:25;;;;;;;6.13;2.60;;;43.50;65.30;;;;;;5072151;28;20048;-67
2022/08/24 11:14:51;;;;;;;2.97;2.35;;;43.60;64.70;;;;;;5072451;28;20027;-67
2022/08/24 11:17:20;;;;;;;3.38;2.20;;;43.80;64.40;;;;;;5071227;28;20034;-68
2022/08/24 11:19:47;;;;;;;3.50;2.30;;;43.90;64.30;;;;;;5071667;28;20459;-67
2022/08/24 11:23:01;;;;;;;3.47;2.35;;;44.00;64.00;;;;;;5072601;28;20020;-66
2022/08/24 11:25:31;;;;;;;4.80;2.30;;;43.90;63.80;;;;;;5029816;28;20503;-67
2022/08/24 11:28:04;;;;;;;6.28;2.50;;;43.90;63.60;;;;;;5055861;28;20523;-67
2022/08/24 11:30:30;;;;;;;6.53;2.50;;;43.80;63.50;;;;;;5060748;28;20031;-66
2022/08/24 11:32:59;;;;;;;4.07;2.40;;;43.60;63.50;;;;;;5074521;28;20131;-67
2022/08/24 11:35:30;;;;;;;4.45;2.40;;;43.30;63.60;;;;;;5071661;28;20028;-69
2022/08/24 11:38:12;;;;;;;4.03;2.00;;;42.70;64.10;;;;;;5075239;28;20078;-67
2022/08/24 11:40:42;;;;;;;5.72;2.20;;;42.50;64.40;;;;;;5074839;28;20023;-67
2022/08/24 11:43:37;;;;;;;6.45;2.38;;;42.50;64.20;;;;;;5075047;28;20032;-67
2022/08/24 11:46:25;;;;;;;5.88;2.47;;;42.70;64.00;;;;;;5058324;28;20119;-67
2022/08/24 11:49:19;;;;;;;5.53;1.92;;;42.80;63.60;;;;;;5076356;28;20121;-68
2022/08/24 11:51:49;;;;;;;3.47;1.75;;;43.20;63.10;;;;;;5075657;28;20013;-67
2022/08/24 11:54:26;;;;;;;5.15;1.50;;;43.40;62.80;;;;;;5075922;28;20024;-67
2022/08/24 11:57:19;;;;;;;2.85;1.40;;;43.30;62.70;;;;;;5075630;28;20021;-68
2022/08/24 12:00:15;;;;;;;3.03;1.60;;;43.30;62.80;;;;;;5075414;28;20154;-67
2022/08/24 12:02:59;;;;;;;4.55;1.30;;;42.50;63.00;;;;;;5075215;28;20462;-66
2022/08/24 12:05:36;;;;;;;1.15;1.00;;;42.10;63.50;;;;;;5075677;28;20016;-67
2022/08/24 12:08:25;;;;;;;2.78;1.10;;;42.00;63.70;;;;;;5075626;28;20032;-67
2022/08/24 12:11:31;;;;;;;3.90;1.50;;;41.50;64.10;;;;;;5076029;28;20047;-67
2022/08/24 12:14:28;;;;;;;2.22;0.88;;;40.80;64.80;;;;;;5075756;28;20458;-68
2022/08/24 12:17:04;;;;;;;0.93;0.90;;;40.10;65.60;;;;;;5075351;28;20476;-67
2022/08/24 12:19:34;;;;;;;1.90;0.93;;;39.70;66.30;;;;;;5075144;28;20084;-68
2022/08/24 12:22:03;;;;;;;4.90;1.20;;;39.40;66.50;;;;;;5074289;28;20020;-67
2022/08/24 12:24:42;;;;;;;2.03;1.20;;;39.20;66.90;;;;;;5060374;28;20017;-67
2022/08/24 12:27:11;;;;;;;1.67;0.93;;;39.10;67.10;;;;;;5066428;28;20021;-67
2022/08/24 12:29:41;;;;;;;2.13;1.08;;;39.50;66.60;;;;;;5074230;28;20029;-70
2022/08/24 12:32:15;;;;;;;4.78;1.30;;;40.20;66.00;;;;;;5071974;28;20028;-68
2022/08/24 12:34:57;;;;;;;1.52;1.17;;;41.00;65.20;;;;;;5075156;28;20467;-69
2022/08/24 12:37:31;;;;;;;3.35;1.15;;;41.60;64.10;;;;;;5072839;28;20036;-67
2022/08/24 12:40:24;;;;;;;2.05;1.17;;;42.20;63.40;;;;;;5073653;28;20458;-68
2022/08/24 12:43:11;;;;;;;4.55;1.60;;;42.60;62.50;;;;;;5073883;28;20073;-69
2022/08/24 12:45:37;;;;;;;5.03;1.20;;;43.20;62.30;;;;;;5072469;28;20031;-65
2022/08/24 12:48:24;;;;;;;1.98;1.02;;;43.10;62.00;;;;;;5072727;28;20091;-67
2022/08/24 12:51:20;;;;;;;2.13;1.00;;;42.50;62.30;;;;;;5071100;28;20020;-66
2022/08/24 12:53:54;;;;;;;2.42;1.08;;;41.80;63.20;;;;;;5072775;28;20020;-66
2022/08/24 12:56:44;;;;;;;3.25;0.93;;;41.20;64.00;;;;;;5072880;28;20008;-67
2022/08/24 12:59:24;;;;;;;2.78;1.02;;;40.80;64.60;;;;;;5071148;28;20079;-67
2022/08/24 13:02:06;;;;;;;1.58;1.02;;;40.60;64.90;;;;;;5071333;28;20032;-68
2022/08/24 13:04:51;;;;;;;2.85;0.88;;;40.40;65.20;;;;;;5070701;28;20013;-68
2022/08/24 13:07:23;;;;;;;2.90;1.30;;;40.30;65.40;;;;;;5071663;28;20056;-66
2022/08/24 13:10:05;;;;;;;2.15;1.15;;;40.10;65.80;;;;;;5069948;28;20458;-69